Main page
METAR-TAF:

METAR-TAF

Airports :

Sveg Airport

Sveg, Sweden

latitude: 62-02-52N, longitude: 014-25-22E, elevation: 359 m

Current weather observation

The report was made 42 minutes ago, at 17:20 UTC
Wind 4 kt from the Southeast, varying between East and South/Southeast
Temperature 2°C
Humidity 93%
Pressure 995 hPa
Visibility 10 km or more
light rain

METAR: ESND 271720Z AUTO 13004KT 100V160 9999 -RA VV024 02/01 Q0995

Time: 19:02 (18:02 UTC)


TAF: missing

Weather observations and forecasts of more than 4000 airports (METAR and TAF reports).

The available stations are represented by yellow and red dots on the map.

Hover mouse over dot to see the name of the station.

Then click to see weather observations and forecasts.

To change the map : click on the green buttons with a black cross to zoom in, on the green button with a dash to zoom out, or on the green arrows for adjacent maps.


METAR-TAF: